Time;durP1;ratioP1;P1;durP2;ratioP2;P2;SDS_P1;SDS_P2;PMS_P1;PMS_P2;Temp;Humidity;BMP_temperature;BMP_pressure;BME280_temperature;BME280_humidity;BME280_pressure;Samples;Min_cycle;Max_cycle;Signal;HPM_P1;HPM_P2
2022/06/09 00:00:14;;;;;;;641.33;595.33;;;13.80;99.90;;;;;;5116873;27;20051;-61
2022/06/09 00:02:43;;;;;;;679.70;629.13;;;13.80;99.90;;;;;;5116368;27;20043;-62
2022/06/09 00:05:10;;;;;;;619.35;578.05;;;13.80;99.90;;;;;;5135353;27;20126;-61
2022/06/09 00:07:37;;;;;;;597.05;555.88;;;13.80;99.90;;;;;;5116895;27;20469;-61
2022/06/09 00:10:08;;;;;;;560.08;522.08;;;13.80;99.90;;;;;;5134332;27;20130;-62
2022/06/09 00:12:35;;;;;;;656.38;612.85;;;13.80;99.90;;;;;;5134900;27;20131;-61
2022/06/09 00:15:04;;;;;;;566.10;528.30;;;13.80;99.90;;;;;;5117243;27;20083;-61
2022/06/09 00:17:30;;;;;;;630.55;589.42;;;13.80;99.90;;;;;;5116155;27;20112;-61
2022/06/09 00:19:56;;;;;;;702.28;650.92;;;13.80;99.90;;;;;;5112872;28;20100;-61
2022/06/09 00:22:22;;;;;;;690.08;639.22;;;13.80;99.90;;;;;;5114750;28;20051;-61
2022/06/09 00:24:48;;;;;;;760.70;702.38;;;13.90;99.90;;;;;;5112641;28;20050;-61
2022/06/09 00:27:14;;;;;;;668.10;621.10;;;13.90;99.90;;;;;;5120019;27;20043;-62
2022/06/09 00:29:39;;;;;;;734.78;680.33;;;13.90;99.90;;;;;;5099673;27;20077;-61
2022/06/09 00:32:06;;;;;;;740.65;689.40;;;13.90;99.90;;;;;;5134080;27;20051;-61
2022/06/09 00:34:32;;;;;;;773.10;714.85;;;13.90;99.90;;;;;;5134770;27;20054;-62
2022/06/09 00:36:57;;;;;;;722.17;669.30;;;14.00;99.90;;;;;;5134756;27;20042;-61
2022/06/09 00:39:23;;;;;;;714.22;660.63;;;14.00;99.90;;;;;;5134083;27;20096;-61
2022/06/09 00:41:49;;;;;;;704.78;656.67;;;14.00;99.90;;;;;;5134636;27;20453;-61
2022/06/09 00:44:25;;;;;;;696.63;644.08;;;14.00;99.90;;;;;;5134462;27;20051;-61
2022/06/09 00:47:05;;;;;;;580.83;543.75;;;14.00;99.90;;;;;;5134045;27;20074;-61
2022/06/09 00:49:37;;;;;;;708.40;654.17;;;14.00;99.90;;;;;;5116300;27;20096;-62
2022/06/09 00:52:06;;;;;;;601.45;556.20;;;14.00;99.90;;;;;;5134155;27;20142;-62
2022/06/09 00:54:38;;;;;;;710.08;651.65;;;13.90;99.90;;;;;;5134471;27;20043;-61
2022/06/09 00:57:13;;;;;;;798.70;727.97;;;13.90;99.90;;;;;;5134222;27;20043;-62
2022/06/09 00:59:42;;;;;;;783.03;718.88;;;13.90;99.90;;;;;;5133949;27;20545;-61
2022/06/09 01:02:10;;;;;;;735.58;673.88;;;13.90;99.90;;;;;;5134274;27;20039;-61
2022/06/09 01:04:37;;;;;;;796.65;729.05;;;13.80;99.90;;;;;;5134271;27;20079;-61
2022/06/09 01:07:08;;;;;;;803.90;726.67;;;13.80;99.90;;;;;;5133627;27;20047;-61
2022/06/09 01:09:35;;;;;;;770.47;704.97;;;13.80;99.90;;;;;;5134445;27;20053;-61
2022/06/09 01:12:01;;;;;;;793.13;725.40;;;13.80;99.90;;;;;;5133566;27;20054;-61
2022/06/09 01:14:31;;;;;;;797.95;726.70;;;13.70;99.90;;;;;;5133736;27;20045;-61
2022/06/09 01:17:25;;;;;;;664.17;608.60;;;13.70;99.90;;;;;;5134480;27;20111;-62
2022/06/09 01:20:15;;;;;;;615.72;570.97;;;13.70;99.90;;;;;;5115355;27;20051;-62
2022/06/09 01:23:02;;;;;;;611.58;565.58;;;13.70;99.90;;;;;;5134299;27;20103;-62
2022/06/09 01:25:41;;;;;;;709.35;655.85;;;13.70;99.90;;;;;;5133674;27;20043;-61
2022/06/09 01:28:44;;;;;;;628.92;581.65;;;13.70;99.90;;;;;;5133280;27;20047;-61
2022/06/09 01:31:25;;;;;;;628.58;582.38;;;13.70;99.90;;;;;;5113705;28;20050;-61
2022/06/09 01:34:17;;;;;;;646.60;599.53;;;13.70;99.90;;;;;;5112870;28;20413;-62
2022/06/09 01:36:59;;;;;;;669.23;617.90;;;13.80;99.90;;;;;;5119139;27;20078;-61
2022/06/09 01:39:44;;;;;;;680.78;628.88;;;13.80;99.90;;;;;;5133396;27;20292;-61
2022/06/09 01:42:23;;;;;;;586.67;542.83;;;13.80;99.90;;;;;;5133110;27;20055;-62
2022/06/09 01:44:50;;;;;;;730.70;676.75;;;13.80;99.90;;;;;;5133700;27;20139;-61
2022/06/09 01:47:20;;;;;;;695.25;642.80;;;13.80;99.90;;;;;;5133282;27;20050;-62
2022/06/09 01:49:49;;;;;;;645.95;599.50;;;13.80;99.90;;;;;;5114615;27;20043;-62
2022/06/09 01:52:15;;;;;;;622.40;576.47;;;13.80;99.90;;;;;;5133873;28;20075;-61
2022/06/09 01:54:41;;;;;;;496.02;459.95;;;13.80;99.90;;;;;;5114912;28;20047;-61
2022/06/09 01:57:15;;;;;;;495.85;458.48;;;13.80;99.90;;;;;;5132797;28;20098;-61
2022/06/09 01:59:49;;;;;;;527.15;491.35;;;13.80;99.90;;;;;;5133722;28;20035;-61
2022/06/09 02:02:27;;;;;;;392.83;366.83;;;13.80;99.90;;;;;;5132738;28;20118;-61
2022/06/09 02:05:00;;;;;;;582.28;541.75;;;13.80;99.90;;;;;;5133458;28;20039;-62
2022/06/09 02:07:30;;;;;;;565.03;525.53;;;13.80;99.90;;;;;;5133706;28;20051;-61
2022/06/09 02:09:56;;;;;;;620.10;574.95;;;13.80;99.90;;;;;;5114163;28;20485;-61
2022/06/09 02:12:24;;;;;;;393.02;365.65;;;13.80;99.90;;;;;;5133439;28;20039;-61
2022/06/09 02:14:53;;;;;;;315.90;293.52;;;13.80;99.90;;;;;;5133297;28;20039;-61
2022/06/09 02:17:19;;;;;;;334.77;311.15;;;13.80;99.90;;;;;;5132635;28;20051;-61
2022/06/09 02:19:47;;;;;;;477.23;443.42;;;13.90;99.90;;;;;;5133334;28;20039;-61
2022/06/09 02:22:13;;;;;;;493.75;460.17;;;13.80;99.90;;;;;;5114657;28;20060;-61
2022/06/09 02:24:40;;;;;;;536.25;499.42;;;13.80;99.90;;;;;;5114003;28;20409;-62
2022/06/09 02:27:06;;;;;;;434.92;401.30;;;13.90;99.90;;;;;;5133475;28;20562;-61
2022/06/09 02:29:33;;;;;;;484.63;450.63;;;13.90;99.90;;;;;;5115061;28;20048;-61
2022/06/09 02:31:59;;;;;;;540.08;502.27;;;13.90;99.90;;;;;;5131776;28;20039;-61
2022/06/09 02:34:25;;;;;;;489.98;456.85;;;13.90;99.90;;;;;;5114990;28;20477;-61
2022/06/09 02:36:51;;;;;;;517.50;481.05;;;13.90;99.90;;;;;;5114889;28;20051;-61
2022/06/09 02:39:17;;;;;;;474.92;442.05;;;13.90;99.90;;;;;;5132136;28;20165;-62
2022/06/09 02:41:43;;;;;;;462.05;428.80;;;13.90;99.90;;;;;;5133325;28;20047;-62
2022/06/09 02:44:09;;;;;;;567.58;528.50;;;13.90;99.90;;;;;;5133226;28;20055;-62
2022/06/09 02:46:35;;;;;;;517.83;483.42;;;13.90;99.90;;;;;;5132286;28;20047;-62
2022/06/09 02:49:01;;;;;;;571.75;532.33;;;13.90;99.90;;;;;;5134150;27;20108;-61
2022/06/09 02:51:33;;;;;;;555.58;520.30;;;13.90;99.90;;;;;;5117855;27;20063;-62
2022/06/09 02:54:02;;;;;;;593.90;549.97;;;13.90;99.90;;;;;;5136783;27;20040;-62
2022/06/09 02:56:28;;;;;;;532.55;495.33;;;13.90;99.90;;;;;;5118589;27;20126;-62
2022/06/09 02:58:56;;;;;;;608.08;561.47;;;13.90;99.90;;;;;;5136076;27;20094;-61
2022/06/09 03:01:24;;;;;;;502.42;469.17;;;13.90;99.90;;;;;;5136553;27;20043;-61
2022/06/09 03:03:50;;;;;;;574.53;534.20;;;13.90;99.90;;;;;;5136779;27;20067;-62
2022/06/09 03:06:16;;;;;;;509.05;472.70;;;13.90;99.90;;;;;;5135801;27;20095;-62
2022/06/09 03:08:42;;;;;;;552.63;515.33;;;13.90;99.90;;;;;;5136042;27;20486;-61
2022/06/09 03:11:10;;;;;;;555.30;518.38;;;13.90;99.90;;;;;;5118149;27;20058;-61
2022/06/09 03:13:38;;;;;;;547.55;510.92;;;13.80;99.90;;;;;;5135687;27;20125;-62
2022/06/09 03:16:05;;;;;;;575.75;536.63;;;13.80;99.90;;;;;;5135841;27;20043;-61
2022/06/09 03:18:32;;;;;;;528.75;493.27;;;13.80;99.90;;;;;;5118128;27;20043;-61
2022/06/09 03:20:57;;;;;;;581.75;542.22;;;13.80;99.90;;;;;;5135873;27;20051;-61
2022/06/09 03:23:23;;;;;;;663.40;616.35;;;13.80;99.90;;;;;;5136167;27;20073;-61
2022/06/09 03:25:49;;;;;;;637.00;592.60;;;13.80;99.90;;;;;;5136373;27;20047;-61
2022/06/09 03:28:15;;;;;;;603.92;563.50;;;13.70;99.90;;;;;;5117280;27;20049;-61
2022/06/09 03:30:41;;;;;;;658.75;612.65;;;13.70;99.90;;;;;;5136092;27;20042;-61
2022/06/09 03:33:06;;;;;;;616.10;574.47;;;13.70;99.90;;;;;;5136050;27;20050;-61
2022/06/09 03:35:33;;;;;;;581.85;542.70;;;13.70;99.90;;;;;;5135534;27;20036;-61
2022/06/09 03:37:59;;;;;;;646.00;602.47;;;13.70;99.90;;;;;;5135805;27;20047;-61
2022/06/09 03:40:25;;;;;;;678.88;630.70;;;13.70;99.90;;;;;;5136033;27;20051;-61
2022/06/09 03:42:51;;;;;;;689.70;637.08;;;13.70;99.90;;;;;;5134749;27;20043;-62
2022/06/09 03:45:17;;;;;;;643.95;597.95;;;13.70;99.90;;;;;;5136035;27;20066;-61
2022/06/09 03:47:44;;;;;;;710.28;660.28;;;13.70;99.90;;;;;;5135018;27;20500;-61
2022/06/09 03:50:17;;;;;;;770.45;710.45;;;13.70;99.90;;;;;;5135632;27;20050;-62
2022/06/09 03:52:43;;;;;;;574.90;536.28;;;13.70;99.90;;;;;;5135376;27;20529;-61
2022/06/09 03:55:09;;;;;;;597.65;557.95;;;13.70;99.90;;;;;;5135304;27;20121;-61
2022/06/09 03:57:35;;;;;;;683.03;635.03;;;13.70;99.90;;;;;;5135941;27;20083;-61
2022/06/09 04:00:00;;;;;;;627.55;584.45;;;13.70;99.90;;;;;;5134932;27;20046;-61
2022/06/09 04:02:27;;;;;;;681.45;629.85;;;13.70;99.90;;;;;;5134559;27;20125;-61
2022/06/09 04:04:53;;;;;;;665.25;617.20;;;13.70;99.90;;;;;;5135882;27;20047;-61
2022/06/09 04:07:20;;;;;;;673.60;624.67;;;13.70;99.90;;;;;;5135696;27;20035;-61
2022/06/09 04:09:46;;;;;;;775.47;718.10;;;13.70;99.90;;;;;;5134012;27;20039;-61
2022/06/09 04:12:12;;;;;;;705.92;653.75;;;13.70;99.90;;;;;;5135074;27;20096;-61
2022/06/09 04:14:38;;;;;;;671.88;625.33;;;13.70;99.90;;;;;;5116944;27;20065;-61
2022/06/09 04:17:04;;;;;;;699.00;650.15;;;13.60;99.90;;;;;;5134048;27;20027;-61
2022/06/09 04:19:29;;;;;;;737.58;682.60;;;13.60;99.90;;;;;;5116917;27;20039;-61
2022/06/09 04:21:55;;;;;;;799.00;737.80;;;13.60;99.90;;;;;;5135519;27;20051;-62
2022/06/09 04:24:21;;;;;;;727.42;671.30;;;13.70;99.90;;;;;;5134281;27;20096;-61
2022/06/09 04:26:47;;;;;;;776.85;715.63;;;13.70;99.90;;;;;;5134820;27;20050;-62
2022/06/09 04:29:13;;;;;;;759.05;695.60;;;13.70;99.90;;;;;;5135287;27;20107;-62
2022/06/09 04:31:41;;;;;;;1053.18;754.67;;;13.80;99.90;;;;;;5134135;27;20035;-61
2022/06/09 04:34:07;;;;;;;728.33;671.95;;;13.80;99.90;;;;;;5116602;27;20118;-62
2022/06/09 04:36:34;;;;;;;686.90;636.00;;;13.80;99.90;;;;;;5134768;27;20085;-62
2022/06/09 04:39:01;;;;;;;741.50;682.42;;;13.80;99.90;;;;;;5134074;27;20085;-61
2022/06/09 04:41:27;;;;;;;758.03;694.70;;;13.90;99.90;;;;;;5134791;27;20051;-61
2022/06/09 04:43:52;;;;;;;758.78;699.42;;;13.80;99.90;;;;;;5111998;28;20410;-61
2022/06/09 04:46:21;;;;;;;653.67;607.00;;;13.90;99.90;;;;;;5112431;28;20055;-61
2022/06/09 04:48:47;;;;;;;657.33;611.50;;;13.90;99.90;;;;;;5112963;28;20043;-61
2022/06/09 04:51:16;;;;;;;581.88;540.67;;;13.90;99.90;;;;;;5114958;27;20103;-61
2022/06/09 04:53:42;;;;;;;588.42;547.53;;;13.90;99.90;;;;;;5133343;27;20092;-61
2022/06/09 04:56:09;;;;;;;628.63;583.40;;;14.00;99.90;;;;;;5134396;27;20118;-62
2022/06/09 04:58:38;;;;;;;630.33;585.20;;;14.00;99.90;;;;;;5114955;27;20051;-61
2022/06/09 05:01:06;;;;;;;722.15;668.10;;;14.00;99.90;;;;;;5133405;27;20090;-61
2022/06/09 05:03:33;;;;;;;768.05;706.13;;;14.10;99.90;;;;;;5133234;27;20047;-61
2022/06/09 05:05:59;;;;;;;726.30;673.72;;;14.10;99.90;;;;;;5097907;27;20051;-61
2022/06/09 05:08:25;;;;;;;708.88;648.42;;;14.20;99.90;;;;;;5133209;27;20054;-62
2022/06/09 05:10:50;;;;;;;754.53;697.38;;;14.20;99.90;;;;;;5133440;27;20035;-61
2022/06/09 05:13:17;;;;;;;827.20;760.22;;;14.20;99.90;;;;;;5132040;27;20050;-61
2022/06/09 05:15:49;;;;;;;730.83;667.70;;;14.20;99.90;;;;;;5115523;27;20054;-61
2022/06/09 05:18:16;;;;;;;761.17;690.92;;;14.20;99.90;;;;;;5115885;27;20047;-62
2022/06/09 05:20:42;;;;;;;708.15;646.03;;;14.20;99.90;;;;;;5133104;27;20036;-61
2022/06/09 05:23:08;;;;;;;593.80;546.08;;;14.20;99.90;;;;;;5133770;27;20055;-61
2022/06/09 05:25:33;;;;;;;568.95;526.40;;;14.20;99.90;;;;;;5134025;27;20039;-61
2022/06/09 05:27:59;;;;;;;711.78;655.83;;;14.20;99.90;;;;;;5132790;27;20050;-61
2022/06/09 05:30:25;;;;;;;518.80;484.60;;;14.20;99.90;;;;;;5115087;27;20079;-61
2022/06/09 05:32:52;;;;;;;525.75;491.08;;;14.20;99.90;;;;;;5115572;27;20143;-61
2022/06/09 05:35:19;;;;;;;510.58;476.45;;;14.20;99.90;;;;;;5114814;27;20143;-61
2022/06/09 05:46:01;;;;;;;564.17;521.63;;;14.20;99.90;;;;;;5133019;27;20104;-61
2022/06/09 05:48:27;;;;;;;657.70;600.53;;;14.20;99.90;;;;;;5114491;28;20055;-61
2022/06/09 05:50:54;;;;;;;556.97;517.00;;;14.30;99.90;;;;;;5115027;27;20063;-61
2022/06/09 05:53:20;;;;;;;712.00;650.10;;;14.30;99.90;;;;;;5132980;27;20496;-61
2022/06/09 05:55:47;;;;;;;561.05;520.80;;;14.30;99.90;;;;;;5110800;28;20068;-62
2022/06/09 05:58:12;;;;;;;675.67;621.20;;;14.30;99.90;;;;;;5113111;28;20054;-61
2022/06/09 06:00:41;;;;;;;563.72;523.70;;;14.30;99.90;;;;;;5112724;28;20051;-62
2022/06/09 06:03:08;;;;;;;826.85;750.47;;;14.30;99.90;;;;;;5113555;28;20047;-62
2022/06/09 06:08:18;;;;;;;599.45;555.17;;;14.40;99.90;;;;;;5131651;28;20362;-61
2022/06/09 06:10:44;;;;;;;619.75;574.17;;;14.40;99.90;;;;;;5113794;27;20506;-61
2022/06/09 06:13:10;;;;;;;632.58;579.50;;;14.50;99.90;;;;;;5126303;28;20093;-62
2022/06/09 06:15:36;;;;;;;658.85;597.88;;;14.50;99.90;;;;;;5114191;27;20155;-62
2022/06/09 06:18:03;;;;;;;528.28;495.42;;;14.60;99.90;;;;;;5119103;28;20477;-61
2022/06/09 06:20:30;;;;;;;562.03;525.45;;;14.80;99.90;;;;;;5132586;28;20040;-61
2022/06/09 06:22:56;;;;;;;464.35;436.45;;;14.80;99.90;;;;;;5131896;27;20062;-61
2022/06/09 06:25:24;;;;;;;418.40;394.33;;;14.90;99.90;;;;;;5118503;27;20039;-62
2022/06/09 06:27:50;;;;;;;481.08;452.63;;;14.90;99.90;;;;;;5118565;27;20404;-62
2022/06/09 06:30:16;;;;;;;492.20;463.92;;;15.00;99.90;;;;;;5113793;28;20028;-61
2022/06/09 06:32:41;;;;;;;507.83;479.25;;;15.00;99.90;;;;;;5116696;28;20040;-61
2022/06/09 06:35:08;;;;;;;436.38;412.27;;;14.90;99.90;;;;;;5131722;27;20493;-61
2022/06/09 06:37:34;;;;;;;438.90;414.73;;;14.90;99.90;;;;;;5135733;27;20043;-62
2022/06/09 06:40:00;;;;;;;418.35;395.38;;;14.90;99.90;;;;;;5135952;27;20051;-61
2022/06/09 06:42:26;;;;;;;525.15;494.77;;;14.90;99.90;;;;;;5136808;27;20051;-62
2022/06/09 06:44:52;;;;;;;514.55;483.80;;;14.90;99.90;;;;;;5135330;27;20118;-61
2022/06/09 06:47:17;;;;;;;580.72;545.30;;;14.90;99.90;;;;;;5136372;27;20069;-62
2022/06/09 06:49:43;;;;;;;499.25;470.55;;;14.80;99.90;;;;;;5137112;27;20043;-62
2022/06/09 06:52:09;;;;;;;449.08;424.35;;;14.90;99.90;;;;;;5136099;27;20047;-61
2022/06/09 06:54:35;;;;;;;388.83;368.00;;;14.90;99.90;;;;;;5136795;27;20080;-62
2022/06/09 06:57:05;;;;;;;410.65;386.83;;;15.00;99.90;;;;;;5136859;27;20043;-61
2022/06/09 06:59:32;;;;;;;422.90;399.75;;;15.10;99.90;;;;;;5135916;27;20095;-61
2022/06/09 07:01:58;;;;;;;383.90;362.90;;;15.10;99.90;;;;;;5136471;27;20401;-62
2022/06/09 07:04:25;;;;;;;409.30;387.10;;;15.20;99.90;;;;;;5136536;27;20070;-62
2022/06/09 07:06:50;;;;;;;453.08;427.58;;;15.30;99.90;;;;;;5135462;27;20039;-62
2022/06/09 07:09:16;;;;;;;395.33;373.80;;;15.50;99.90;;;;;;5097344;28;20513;-61
2022/06/09 07:11:45;;;;;;;520.63;485.65;;;15.60;99.90;;;;;;5115381;28;20107;-61
2022/06/09 07:14:11;;;;;;;442.65;418.42;;;15.80;99.90;;;;;;5112266;28;20129;-62
2022/06/09 07:16:37;;;;;;;461.90;436.48;;;15.90;99.90;;;;;;5116227;28;20057;-62
2022/06/09 07:19:03;;;;;;;415.60;393.25;;;16.00;99.90;;;;;;5113965;28;20052;-62
2022/06/09 07:21:30;;;;;;;401.48;380.30;;;16.00;99.90;;;;;;5114243;28;20047;-62
2022/06/09 07:23:56;;;;;;;491.95;464.42;;;16.00;99.90;;;;;;5128977;27;20032;-61
2022/06/09 07:26:22;;;;;;;388.50;368.33;;;16.10;99.90;;;;;;5135684;27;20103;-61
2022/06/09 07:28:48;;;;;;;472.50;447.15;;;16.10;99.90;;;;;;5135904;27;20043;-61
2022/06/09 07:31:14;;;;;;;422.10;400.33;;;16.20;99.90;;;;;;5135825;27;20466;-61
2022/06/09 07:33:41;;;;;;;384.80;365.38;;;16.20;99.90;;;;;;5116815;27;20057;-61
2022/06/09 07:36:13;;;;;;;436.25;413.58;;;16.30;99.90;;;;;;5134492;27;20404;-61
2022/06/09 07:38:39;;;;;;;579.20;546.17;;;16.10;99.90;;;;;;5136223;27;20075;-62
2022/06/09 07:41:05;;;;;;;435.90;413.23;;;16.10;99.90;;;;;;5134833;27;20504;-61
2022/06/09 07:43:32;;;;;;;444.90;421.85;;;16.20;99.90;;;;;;5135498;27;20078;-62
2022/06/09 07:45:57;;;;;;;510.38;483.40;;;16.30;99.90;;;;;;5136070;27;20074;-61
2022/06/09 07:48:23;;;;;;;657.33;617.83;;;16.50;99.90;;;;;;5135038;27;20473;-61
2022/06/09 07:50:51;;;;;;;498.23;471.15;;;16.50;99.90;;;;;;5112973;28;20126;-61
2022/06/09 07:53:18;;;;;;;531.40;502.17;;;16.40;99.90;;;;;;5114178;28;20080;-61
2022/06/09 07:55:44;;;;;;;512.22;484.55;;;16.50;99.90;;;;;;5124749;27;20114;-62
2022/06/09 07:58:11;;;;;;;526.47;497.05;;;16.60;99.90;;;;;;5117171;27;20050;-61
2022/06/09 08:00:37;;;;;;;539.30;509.00;;;16.70;99.90;;;;;;5130346;27;20098;-61
2022/06/09 08:03:04;;;;;;;488.15;462.55;;;16.90;99.90;;;;;;5130682;27;20070;-61
2022/06/09 08:05:31;;;;;;;657.70;618.08;;;17.00;99.90;;;;;;5134391;27;20043;-61
2022/06/09 08:07:58;;;;;;;500.60;472.23;;;17.30;99.90;;;;;;5133697;27;20043;-62
2022/06/09 08:10:27;;;;;;;551.13;519.55;;;17.40;99.90;;;;;;5135071;27;20103;-61
2022/06/09 08:12:56;;;;;;;547.15;499.48;;;17.30;99.90;;;;;;5134265;27;20047;-61
2022/06/09 08:15:24;;;;;;;457.98;433.25;;;17.10;99.90;;;;;;5133639;27;20492;-62
2022/06/09 08:17:51;;;;;;;581.47;548.88;;;17.20;99.90;;;;;;5113056;28;20511;-62
2022/06/09 08:20:17;;;;;;;644.38;606.35;;;17.40;99.90;;;;;;5121916;27;20390;-61
2022/06/09 08:22:43;;;;;;;588.97;555.38;;;17.60;99.90;;;;;;5154772;27;20117;-61
2022/06/09 08:25:12;;;;;;;583.78;550.78;;;17.90;99.90;;;;;;5115847;27;20541;-62
2022/06/09 08:27:38;;;;;;;492.30;466.88;;;17.90;99.90;;;;;;5134453;27;20039;-62
2022/06/09 08:30:06;;;;;;;662.13;619.60;;;17.80;99.90;;;;;;5115502;27;20394;-62
2022/06/09 08:32:32;;;;;;;554.83;524.58;;;17.80;99.90;;;;;;5133943;27;20039;-61
2022/06/09 08:34:58;;;;;;;405.63;386.33;;;17.90;99.90;;;;;;5133276;27;20047;-62
2022/06/09 08:37:24;;;;;;;765.95;716.40;;;18.00;99.90;;;;;;5115079;27;20039;-61
2022/06/09 08:39:50;;;;;;;568.17;536.22;;;18.10;99.90;;;;;;5134488;27;20051;-62
2022/06/09 08:42:30;;;;;;;451.30;428.70;;;18.20;99.90;;;;;;5134107;27;20092;-62
2022/06/09 08:45:08;;;;;;;611.85;575.90;;;18.20;99.90;;;;;;5133844;27;20091;-62
2022/06/09 08:47:38;;;;;;;606.88;571.65;;;18.20;99.90;;;;;;5134461;27;20139;-62
2022/06/09 08:50:19;;;;;;;666.03;626.47;;;18.30;99.90;;;;;;5133612;27;20119;-62
2022/06/09 08:53:04;;;;;;;488.55;462.90;;;18.40;99.90;;;;;;5112359;28;20063;-62
2022/06/09 08:55:36;;;;;;;509.05;481.50;;;18.40;99.90;;;;;;5114197;28;20381;-62
2022/06/09 08:58:15;;;;;;;610.50;575.35;;;18.30;99.90;;;;;;5113110;28;20385;-62
2022/06/09 09:00:48;;;;;;;691.45;649.17;;;18.30;99.90;;;;;;5112851;28;20039;-62
2022/06/09 09:03:28;;;;;;;665.28;624.38;;;18.50;99.90;;;;;;5116337;27;20054;-62
2022/06/09 09:06:18;;;;;;;522.10;494.45;;;18.70;99.90;;;;;;5133167;27;20127;-62
2022/06/09 09:08:44;;;;;;;478.33;454.40;;;18.60;99.90;;;;;;5133936;27;20043;-62
2022/06/09 09:11:40;;;;;;;549.00;518.53;;;18.60;99.90;;;;;;5133365;27;20039;-62
2022/06/09 09:14:12;;;;;;;668.88;627.15;;;18.80;99.90;;;;;;5098646;28;20528;-62
2022/06/09 09:16:58;;;;;;;557.60;527.40;;;19.00;99.90;;;;;;5113473;28;20075;-62
2022/06/09 09:19:44;;;;;;;658.60;619.35;;;18.90;99.90;;;;;;5091969;27;20043;-62
2022/06/09 09:22:30;;;;;;;492.20;466.95;;;18.80;99.90;;;;;;5122979;27;20047;-62
2022/06/09 09:25:07;;;;;;;472.17;448.63;;;18.90;99.90;;;;;;5130289;27;20402;-63
2022/06/09 09:27:44;;;;;;;472.38;449.05;;;19.00;99.90;;;;;;5131235;27;20462;-62
2022/06/09 09:30:15;;;;;;;711.30;667.47;;;19.00;99.90;;;;;;5131537;27;20039;-62
2022/06/09 09:32:48;;;;;;;771.53;721.97;;;19.10;99.90;;;;;;5114113;27;20100;-62
2022/06/09 09:35:26;;;;;;;774.08;725.22;;;19.10;99.90;;;;;;5132578;27;20045;-62
2022/06/09 09:37:55;;;;;;;618.67;583.38;;;19.00;99.90;;;;;;5114313;27;20047;-62
2022/06/09 09:40:42;;;;;;;872.63;812.08;;;18.90;99.90;;;;;;5132395;27;20035;-62
2022/06/09 09:43:11;;;;;;;694.53;652.08;;;19.10;99.90;;;;;;5131223;27;20078;-63
2022/06/09 09:45:42;;;;;;;739.35;692.78;;;19.10;99.90;;;;;;5133050;27;20046;-62
2022/06/09 09:48:40;;;;;;;707.67;664.72;;;19.20;99.90;;;;;;5110255;28;20050;-62
2022/06/09 09:51:12;;;;;;;724.97;680.25;;;19.10;99.90;;;;;;5112710;28;20052;-62
2022/06/09 09:53:38;;;;;;;620.85;585.60;;;18.90;99.90;;;;;;5119685;28;20054;-62
2022/06/09 09:56:29;;;;;;;620.95;585.95;;;19.00;99.90;;;;;;5105518;28;20053;-62
2022/06/09 09:58:58;;;;;;;541.35;512.10;;;19.40;99.90;;;;;;5113725;27;20039;-63
2022/06/09 10:01:26;;;;;;;780.35;728.90;;;19.80;99.90;;;;;;5139256;27;20038;-62
2022/06/09 10:09:44;;;;;;;596.25;563.15;;;19.70;99.90;;;;;;5139611;27;20054;-63
2022/06/09 10:12:30;;;;;;;810.72;757.13;;;19.50;99.90;;;;;;5139842;27;20050;-62
2022/06/09 10:15:10;;;;;;;670.47;630.58;;;19.60;99.90;;;;;;5139707;27;20054;-62
2022/06/09 10:17:58;;;;;;;839.67;783.80;;;19.80;99.90;;;;;;5139965;27;20524;-62
2022/06/09 10:20:25;;;;;;;643.05;604.65;;;20.00;99.90;;;;;;5118226;28;20073;-62
2022/06/09 10:23:07;;;;;;;650.97;611.25;;;20.10;99.90;;;;;;5118673;28;20047;-62
2022/06/09 10:25:59;;;;;;;772.60;722.83;;;20.30;99.90;;;;;;5134516;27;20055;-62
2022/06/09 10:28:46;;;;;;;972.77;617.87;;;20.40;99.90;;;;;;5118469;27;20499;-62
2022/06/09 10:31:34;;;;;;;607.95;566.50;;;20.40;99.90;;;;;;5138405;27;20106;-63
2022/06/09 10:34:29;;;;;;;1999.90;999.90;;;20.20;99.90;;;;;;5139202;27;20047;-63
2022/06/09 10:37:01;;;;;;;759.65;710.17;;;20.10;99.90;;;;;;5138235;27;20039;-62
2022/06/09 10:39:42;;;;;;;579.15;538.45;;;19.70;99.90;;;;;;5119827;28;20079;-62
2022/06/09 10:42:26;;;;;;;1032.38;747.90;;;19.80;99.90;;;;;;5119534;28;20505;-62
2022/06/09 10:44:56;;;;;;;732.60;685.83;;;20.20;99.90;;;;;;5133028;27;20071;-62
2022/06/09 10:56:26;;;;;;;1999.90;999.90;;;21.10;99.90;;;;;;5139337;27;20122;-62
2022/06/09 10:59:07;;;;;;;1999.90;999.90;;;21.20;99.90;;;;;;5139601;27;20035;-62
2022/06/09 11:01:34;;;;;;;1999.90;999.90;;;20.90;99.90;;;;;;5140127;27;20039;-62
2022/06/09 11:04:03;;;;;;;1999.90;999.90;;;21.00;99.90;;;;;;5138606;27;20760;-62
2022/06/09 11:06:46;;;;;;;240.52;223.07;;;21.30;99.90;;;;;;5139974;27;20071;-62
2022/06/09 11:09:17;;;;;;;1999.90;999.90;;;21.30;99.90;;;;;;5139629;27;20477;-62
2022/06/09 11:11:45;;;;;;;1532.78;780.42;;;21.50;99.90;;;;;;5135988;27;20130;-62
2022/06/09 11:14:37;;;;;;;1133.40;622.47;;;21.80;99.90;;;;;;5113840;28;20486;-62
2022/06/09 11:17:17;;;;;;;1999.90;999.90;;;21.90;99.90;;;;;;5114443;28;20398;-62
2022/06/09 11:19:51;;;;;;;1999.90;999.90;;;22.10;99.90;;;;;;5113947;28;20055;-62
2022/06/09 11:22:29;;;;;;;1999.90;999.90;;;22.20;99.90;;;;;;5125317;27;20546;-62
2022/06/09 11:25:30;;;;;;;1611.18;853.47;;;22.20;99.90;;;;;;5135351;27;20043;-62
2022/06/09 11:28:09;;;;;;;1143.80;632.92;;;22.50;99.90;;;;;;5136472;27;20031;-62
2022/06/09 11:30:45;;;;;;;1999.90;999.90;;;22.50;99.90;;;;;;5135992;27;20129;-62
2022/06/09 11:33:29;;;;;;;1999.90;999.90;;;22.00;99.40;;;;;;5135352;27;20474;-62
2022/06/09 11:36:04;;;;;;;1999.90;999.90;;;21.00;99.90;;;;;;5136100;27;20048;-62
2022/06/09 11:38:37;;;;;;;1999.90;999.90;;;20.40;99.90;;;;;;5115896;28;20082;-62
2022/06/09 11:41:28;;;;;;;1999.90;999.90;;;20.60;99.90;;;;;;5133437;27;20047;-62
2022/06/09 11:44:08;;;;;;;1999.90;999.90;;;21.20;99.90;;;;;;5100216;27;20086;-62
2022/06/09 11:46:39;;;;;;;1574.57;818.17;;;21.60;99.90;;;;;;5133680;27;20040;-62
2022/06/09 11:49:15;;;;;;;1999.90;999.90;;;22.10;99.90;;;;;;5132517;27;20045;-62
2022/06/09 11:51:41;;;;;;;1569.95;814.95;;;22.20;99.90;;;;;;5135380;27;20039;-62
2022/06/09 11:54:42;;;;;;;1999.90;999.90;;;21.70;99.90;;;;;;5116290;27;20370;-62
2022/06/09 11:57:19;;;;;;;1567.68;812.45;;;21.50;99.90;;;;;;5133615;27;20039;-62
2022/06/09 12:00:02;;;;;;;1609.82;851.58;;;21.50;99.90;;;;;;5097475;27;20043;-62
2022/06/09 12:02:52;;;;;;;1999.90;999.90;;;21.50;99.90;;;;;;5131902;27;20043;-62
2022/06/09 12:05:22;;;;;;;767.33;497.25;;;21.20;99.90;;;;;;5134058;27;20047;-62
2022/06/09 12:08:12;;;;;;;1999.90;999.90;;;21.20;99.90;;;;;;5134263;27;20039;-63
2022/06/09 12:11:06;;;;;;;1999.90;999.90;;;21.10;99.90;;;;;;5125309;27;20051;-62
2022/06/09 12:13:47;;;;;;;1999.90;999.90;;;21.40;99.90;;;;;;5134685;27;20073;-62
2022/06/09 12:16:38;;;;;;;1999.90;999.90;;;21.60;99.90;;;;;;5132386;27;20051;-62
2022/06/09 12:19:24;;;;;;;1999.90;999.90;;;21.60;99.90;;;;;;5114444;28;20075;-62
2022/06/09 12:21:55;;;;;;;1552.20;796.80;;;21.50;99.90;;;;;;5094993;28;20221;-62
2022/06/09 12:24:24;;;;;;;1999.90;999.90;;;21.30;99.90;;;;;;5126748;27;20062;-62
2022/06/09 12:26:59;;;;;;;1999.90;999.90;;;21.00;99.90;;;;;;5131955;27;20122;-62
2022/06/09 12:29:43;;;;;;;1999.90;999.90;;;21.00;99.90;;;;;;5116033;27;20125;-62
2022/06/09 12:32:09;;;;;;;1999.90;999.90;;;21.10;99.90;;;;;;5133875;27;20047;-62
2022/06/09 12:34:45;;;;;;;1999.90;999.90;;;20.80;99.90;;;;;;5134406;27;20442;-62
2022/06/09 12:37:17;;;;;;;1999.90;999.90;;;20.70;99.90;;;;;;5115959;27;20035;-62
2022/06/09 12:39:47;;;;;;;1999.90;999.90;;;20.80;99.90;;;;;;5115721;27;20179;-62
2022/06/09 12:42:22;;;;;;;1999.90;999.90;;;21.00;99.90;;;;;;5133261;27;20043;-62
2022/06/09 12:45:12;;;;;;;1999.90;999.90;;;21.00;99.90;;;;;;5133474;27;20054;-62
2022/06/09 12:48:02;;;;;;;1999.90;999.90;;;21.00;99.90;;;;;;5115998;27;20070;-62
2022/06/09 12:50:33;;;;;;;1999.90;999.90;;;20.80;99.90;;;;;;5111669;28;20126;-62